Time;durP1;ratioP1;P1;durP2;ratioP2;P2;SDS_P1;SDS_P2;PMS_P1;PMS_P2;Temp;Humidity;BMP_temperature;BMP_pressure;BME280_temperature;BME280_humidity;BME280_pressure;Samples;Min_cycle;Max_cycle;Signal;HPM_P1;HPM_P2
2023/06/09 00:00:19;;;;;;;11.20;10.10;;;;;;;18.41;64.44;100989.53;4876568;29;21011;-67
2023/06/09 00:02:50;;;;;;;10.50;9.50;;;;;;;18.47;64.18;100980.31;4875904;29;20453;-65
2023/06/09 00:05:21;;;;;;;11.40;9.53;;;;;;;18.57;63.85;100983.22;4879161;29;20532;-65
2023/06/09 00:07:52;;;;;;;14.13;10.27;;;;;;;18.43;64.43;100992.84;4876661;29;20529;-68
2023/06/09 00:10:21;;;;;;;10.03;9.00;;;;;;;18.48;64.62;100983.88;4876505;29;20409;-66
2023/06/09 00:12:50;;;;;;;16.53;10.07;;;;;;;18.53;64.92;100993.03;4877292;29;20445;-67
2023/06/09 00:15:19;;;;;;;10.93;9.90;;;;;;;18.33;64.77;100987.22;4882209;29;20450;-64
2023/06/09 00:17:48;;;;;;;10.47;9.40;;;;;;;18.24;65.56;100983.25;4882386;29;20418;-66
2023/06/09 00:20:17;;;;;;;10.20;8.93;;;;;;;18.12;65.87;100990.72;4876526;29;20513;-66
2023/06/09 00:22:48;;;;;;;12.97;10.17;;;;;;;18.26;65.69;100986.53;4876071;29;20474;-65
2023/06/09 00:25:20;;;;;;;12.43;9.40;;;;;;;18.38;65.10;100984.56;4877426;29;20446;-66
2023/06/09 00:27:49;;;;;;;11.67;9.93;;;;;;;18.26;65.45;100986.53;4882474;29;20448;-66
2023/06/09 00:30:23;;;;;;;10.40;9.30;;;;;;;18.15;66.09;100973.78;4891698;29;20446;-65
2023/06/09 00:33:07;;;;;;;13.30;11.43;;;;;;;18.04;66.62;100983.75;4885709;29;20425;-64
2023/06/09 00:35:36;;;;;;;11.73;10.00;;;;;;;17.88;67.01;100973.63;4872438;29;20960;-63
2023/06/09 00:38:05;;;;;;;12.43;9.60;;;;;;;17.95;67.23;100974.28;4874026;29;20430;-66
2023/06/09 00:40:35;;;;;;;12.10;10.10;;;;;;;18.13;66.24;100975.94;4875313;29;20492;-64
2023/06/09 00:43:05;;;;;;;11.37;10.30;;;;;;;17.85;67.11;100974.13;4899542;29;20446;-65
2023/06/09 00:45:34;;;;;;;10.43;9.00;;;;;;;17.83;67.41;100975.44;4881285;29;20512;-66
2023/06/09 00:48:02;;;;;;;13.70;10.10;;;;;;;17.90;67.28;100970.63;4896287;29;20450;-64
2023/06/09 00:50:32;;;;;;;12.50;9.23;;;;;;;17.91;67.13;100978.59;4880828;29;20419;-65
2023/06/09 00:53:01;;;;;;;9.90;8.90;;;;;;;17.74;67.66;100970.38;4880389;29;20418;-66
2023/06/09 00:55:31;;;;;;;10.83;9.30;;;;;;;17.60;68.51;100982.72;4882928;29;20814;-68
2023/06/09 00:58:03;;;;;;;9.50;8.53;;;;;;;17.68;68.28;100982.31;4879653;29;20412;-66
2023/06/09 01:00:33;;;;;;;11.90;9.80;;;;;;;17.70;68.18;100979.34;4883785;29;20438;-65
2023/06/09 01:03:03;;;;;;;15.97;9.43;;;;;;;17.74;68.07;100986.81;4879562;29;20760;-66
2023/06/09 01:05:36;;;;;;;11.73;9.40;;;;;;;17.60;68.79;100987.34;4879952;29;20461;-68
2023/06/09 01:08:15;;;;;;;11.40;9.90;;;;;;;17.47;68.94;100985.75;4878839;29;20422;-64
2023/06/09 01:10:51;;;;;;;9.27;8.30;;;;;;;17.38;69.63;100982.53;4894038;29;20446;-67
2023/06/09 01:13:28;;;;;;;10.63;8.70;;;;;;;17.30;70.00;100990.31;4879655;29;20508;-65
2023/06/09 01:16:02;;;;;;;10.83;8.80;;;;;;;17.48;69.83;100990.09;4879044;29;20437;-66
2023/06/09 01:18:35;;;;;;;12.10;10.07;;;;;;;17.43;69.84;100995.47;4879504;29;20823;-67
2023/06/09 01:21:14;;;;;;;14.30;10.67;;;;;;;17.19;70.56;100989.28;4884132;29;20790;-67
2023/06/09 01:23:54;;;;;;;16.80;10.50;;;;;;;17.19;71.14;100991.19;4880384;29;20925;-65
2023/06/09 01:26:28;;;;;;;13.63;9.20;;;;;;;17.20;71.15;100987.38;4877721;29;20541;-66
2023/06/09 01:28:59;;;;;;;10.67;8.67;;;;;;;17.16;71.31;100992.50;4899357;29;20871;-67
2023/06/09 01:31:28;;;;;;;12.20;9.47;;;;;;;17.09;71.71;100985.53;4894969;29;20858;-66
2023/06/09 01:33:58;;;;;;;15.50;11.20;;;;;;;17.07;72.22;100983.03;4878519;29;20428;-65
2023/06/09 01:36:28;;;;;;;13.57;9.67;;;;;;;17.14;72.08;100986.44;4878891;29;20438;-67
2023/06/09 01:38:58;;;;;;;14.33;10.90;;;;;;;17.10;72.20;100988.00;4879422;29;20414;-67
2023/06/09 01:41:28;;;;;;;13.20;9.87;;;;;;;17.02;72.94;100990.31;4870955;29;20542;-66
2023/06/09 01:43:57;;;;;;;11.13;10.00;;;;;;;16.86;73.35;100992.72;4881019;29;20416;-66
2023/06/09 01:46:27;;;;;;;11.90;9.77;;;;;;;16.90;73.33;100991.16;4882127;29;20805;-68
2023/06/09 01:49:03;;;;;;;14.53;9.93;;;;;;;16.85;73.69;100982.84;4881517;29;20957;-64
2023/06/09 01:51:42;;;;;;;13.47;10.27;;;;;;;16.79;74.05;100981.09;4878711;29;21005;-65
2023/06/09 01:54:15;;;;;;;18.73;9.80;;;;;;;16.98;73.53;100978.19;4883119;29;20425;-64
2023/06/09 01:56:48;;;;;;;13.00;10.80;;;;;;;16.80;74.15;100982.75;4884490;29;20493;-66
2023/06/09 01:59:20;;;;;;;12.40;10.00;;;;;;;16.81;74.34;100978.94;4892774;29;20812;-65
2023/06/09 02:01:53;;;;;;;13.40;10.80;;;;;;;16.91;74.10;100979.16;4886067;29;20463;-65
2023/06/09 02:04:25;;;;;;;10.90;9.90;;;;;;;16.85;74.43;100980.13;4889415;29;20804;-66
2023/06/09 02:06:55;;;;;;;13.30;9.27;;;;;;;16.87;74.53;100982.63;4881488;29;20435;-66
2023/06/09 02:09:25;;;;;;;12.10;10.20;;;;;;;16.88;74.75;100978.81;4885586;29;20443;-65
2023/06/09 02:11:56;;;;;;;14.50;10.70;;;;;;;16.76;74.91;100978.81;4885988;29;20431;-67
2023/06/09 02:14:32;;;;;;;11.40;9.63;;;;;;;16.70;75.24;100982.50;4880499;29;20435;-65
2023/06/09 02:17:02;;;;;;;10.70;9.60;;;;;;;16.78;75.13;100984.06;4879490;29;21409;-65
2023/06/09 02:19:37;;;;;;;11.97;9.93;;;;;;;16.63;75.48;100981.81;4888631;29;20485;-65
2023/06/09 02:22:07;;;;;;;11.50;10.20;;;;;;;16.58;76.12;100984.44;4877877;29;21012;-68
2023/06/09 02:24:36;;;;;;;12.30;10.30;;;;;;;16.79;75.34;100989.31;4892431;29;20927;-62
2023/06/09 02:27:07;;;;;;;12.20;10.80;;;;;;;16.66;76.24;100986.81;4877321;29;20584;-66
2023/06/09 02:29:37;;;;;;;12.10;10.53;;;;;;;16.76;75.54;100987.03;4876748;29;20430;-66
2023/06/09 02:32:06;;;;;;;12.90;9.40;;;;;;;16.64;76.25;100988.97;4878594;29;20411;-66
2023/06/09 02:34:37;;;;;;;22.10;11.70;;;;;;;16.56;76.28;100981.06;4872744;29;20478;-65
2023/06/09 02:37:09;;;;;;;13.17;10.20;;;;;;;16.57;76.73;100988.22;4879607;29;21044;-65
2023/06/09 02:39:38;;;;;;;10.93;9.50;;;;;;;16.52;76.71;100990.81;4878498;29;20475;-66
2023/06/09 02:42:09;;;;;;;10.67;9.53;;;;;;;16.51;76.76;100983.69;4877023;29;20571;-68
2023/06/09 02:44:39;;;;;;;14.40;10.00;;;;;;;16.41;77.17;100988.97;4884703;29;20422;-67
2023/06/09 02:47:08;;;;;;;15.60;10.80;;;;;;;16.40;77.42;100981.81;4875584;29;20922;-66
2023/06/09 02:49:37;;;;;;;14.30;11.47;;;;;;;16.35;77.24;100989.91;4884082;29;20450;-65
2023/06/09 02:52:07;;;;;;;12.03;10.87;;;;;;;16.31;77.48;100991.44;4879443;29;20973;-66
2023/06/09 02:54:40;;;;;;;13.97;10.67;;;;;;;16.33;77.37;100987.41;4876498;29;20449;-66
2023/06/09 02:57:14;;;;;;;12.67;11.37;;;;;;;16.29;77.51;100996.31;4879272;29;20471;-65
2023/06/09 02:59:45;;;;;;;17.90;10.60;;;;;;;16.30;77.51;100992.50;4874150;29;20455;-66
2023/06/09 03:02:15;;;;;;;11.70;10.23;;;;;;;16.22;77.69;100995.56;4878581;29;20562;-65
2023/06/09 03:04:45;;;;;;;11.80;10.63;;;;;;;16.35;77.20;101000.81;4889419;29;20443;-65
2023/06/09 03:07:14;;;;;;;12.87;11.60;;;;;;;16.28;77.33;101000.09;4880314;29;20452;-66
2023/06/09 03:09:44;;;;;;;11.77;10.50;;;;;;;16.29;77.48;101001.78;4880023;29;20454;-65
2023/06/09 03:12:15;;;;;;;16.60;10.43;;;;;;;16.24;77.49;101005.22;4881423;29;20407;-66
2023/06/09 03:14:44;;;;;;;11.77;10.60;;;;;;;16.27;77.53;101003.88;4878259;29;20786;-64
2023/06/09 03:17:13;;;;;;;16.17;11.37;;;;;;;16.18;78.18;101005.31;4877472;29;20482;-64
2023/06/09 03:19:43;;;;;;;15.53;10.37;;;;;;;16.20;78.20;101001.28;4880511;29;21146;-63
2023/06/09 03:22:12;;;;;;;12.57;11.10;;;;;;;16.29;78.13;101004.50;4887312;29;20496;-63
2023/06/09 03:24:44;;;;;;;12.60;10.03;;;;;;;16.29;77.86;101007.22;4883077;29;20483;-66
2023/06/09 03:27:15;;;;;;;16.50;12.00;;;;;;;16.37;77.55;101004.13;4892069;29;20472;-65
2023/06/09 03:29:44;;;;;;;14.87;11.70;;;;;;;16.28;77.97;101011.03;4882631;29;20432;-66
2023/06/09 03:32:14;;;;;;;11.20;10.03;;;;;;;16.35;78.12;101011.75;4878266;29;20460;-65
2023/06/09 03:34:43;;;;;;;11.80;9.53;;;;;;;16.62;77.04;101018.41;4879475;29;20418;-63
2023/06/09 03:37:14;;;;;;;13.87;10.83;;;;;;;16.90;75.72;101021.22;4873892;29;20902;-64
2023/06/09 03:39:44;;;;;;;16.10;10.80;;;;;;;17.54;72.93;101021.13;4880340;29;20483;-63
2023/06/09 03:42:17;;;;;;;11.33;10.33;;;;;;;18.28;69.53;101024.66;4886971;29;20417;-64
2023/06/09 03:44:47;;;;;;;12.20;11.00;;;;;;;18.55;67.30;101022.91;4880542;29;20789;-64
2023/06/09 03:47:16;;;;;;;17.57;11.23;;;;;;;18.69;66.94;101017.91;4879952;29;20462;-65
2023/06/09 03:49:45;;;;;;;14.20;11.57;;;;;;;19.10;65.71;101017.38;4894018;29;20426;-68
2023/06/09 03:52:14;;;;;;;11.70;10.10;;;;;;;19.91;61.84;101018.25;4876262;29;20453;-63
2023/06/09 03:54:43;;;;;;;13.83;10.07;;;;;;;20.55;58.98;101018.25;4891914;29;20458;-62
2023/06/09 03:57:13;;;;;;;13.10;11.23;;;;;;;20.82;57.82;101016.19;4877921;29;20949;-63
2023/06/09 03:59:44;;;;;;;11.57;9.23;;;;;;;21.03;55.97;101023.47;4879054;29;20428;-64
2023/06/09 04:02:13;;;;;;;13.30;9.57;;;;;;;20.90;56.42;101018.47;4883289;29;20425;-63
2023/06/09 04:04:42;;;;;;;12.03;10.20;;;;;;;20.86;55.85;101014.59;4876914;29;20478;-64
2023/06/09 04:07:14;;;;;;;11.33;9.63;;;;;;;21.03;55.17;101019.88;4898206;29;20814;-66
2023/06/09 04:09:47;;;;;;;15.23;9.60;;;;;;;21.55;53.29;101030.84;4876152;29;20433;-63
2023/06/09 04:12:16;;;;;;;10.70;9.50;;;;;;;21.81;53.00;101021.53;4877081;29;20423;-64
2023/06/09 04:14:47;;;;;;;10.77;9.77;;;;;;;20.79;54.75;101025.00;4881397;29;20409;-66
2023/06/09 04:17:16;;;;;;;9.97;8.90;;;;;;;21.21;53.81;101023.03;4897567;29;20841;-66
2023/06/09 04:19:45;;;;;;;11.23;10.10;;;;;;;21.15;53.46;101024.13;4886736;29;20417;-66
2023/06/09 04:22:14;;;;;;;13.00;10.20;;;;;;;21.58;52.13;101019.28;4881697;29;20419;-65
2023/06/09 04:24:44;;;;;;;13.53;10.07;;;;;;;22.13;50.73;101017.72;4882409;29;20458;-62
2023/06/09 04:27:15;;;;;;;10.03;8.83;;;;;;;22.73;48.78;101020.44;4882590;29;20466;-65
2023/06/09 04:29:46;;;;;;;10.00;9.10;;;;;;;23.37;46.95;101016.88;4898008;29;20720;-63
2023/06/09 04:32:16;;;;;;;14.40;9.10;;;;;;;21.41;49.79;101029.69;4882505;29;20451;-63
2023/06/09 04:34:46;;;;;;;11.47;8.50;;;;;;;21.90;49.59;101016.28;4890608;29;20447;-65
2023/06/09 04:37:16;;;;;;;14.00;10.53;;;;;;;22.51;47.82;101019.91;4888022;29;20853;-66
2023/06/09 04:39:47;;;;;;;10.50;9.10;;;;;;;22.31;47.50;101012.50;4886213;29;20873;-65
2023/06/09 04:42:24;;;;;;;12.60;7.70;;;;;;;22.30;46.57;101016.34;4903082;29;20804;-65
2023/06/09 04:44:56;;;;;;;10.33;8.07;;;;;;;22.97;45.27;101015.13;4883880;29;20442;-66
2023/06/09 04:47:28;;;;;;;10.63;8.57;;;;;;;23.59;42.95;101006.28;4882149;29;20949;-66
2023/06/09 04:49:57;;;;;;;9.80;8.77;;;;;;;24.06;41.83;101002.09;4887785;29;20520;-66
2023/06/09 04:52:26;;;;;;;9.87;7.93;;;;;;;24.26;41.56;101010.22;4885015;29;20441;-65
2023/06/09 04:54:57;;;;;;;9.80;8.00;;;;;;;24.67;39.42;101005.94;4881465;29;20766;-66
2023/06/09 04:57:28;;;;;;;8.73;7.87;;;;;;;24.34;39.21;101001.31;4881759;29;20422;-66
2023/06/09 05:00:15;;;;;;;8.17;7.33;;;;;;;24.64;38.36;101009.28;4881989;29;20932;-67
2023/06/09 05:02:45;;;;;;;8.37;6.57;;;;;;;24.19;37.64;101001.44;4878263;29;20428;-64
2023/06/09 05:05:15;;;;;;;8.60;7.03;;;;;;;24.55;36.98;101002.72;4881517;29;20447;-68
2023/06/09 05:07:45;;;;;;;9.63;6.17;;;;;;;23.86;36.50;101000.31;4882075;29;20432;-67
2023/06/09 05:10:14;;;;;;;7.00;5.80;;;;;;;24.48;35.77;101006.97;4904526;29;20422;-65
2023/06/09 05:12:44;;;;;;;6.20;5.60;;;;;;;25.04;35.33;101001.66;4880346;29;20790;-65
2023/06/09 05:15:15;;;;;;;9.70;6.00;;;;;;;24.53;34.22;101002.22;4886542;29;20609;-64
2023/06/09 05:17:46;;;;;;;5.90;5.33;;;;;;;24.30;34.14;101007.72;4881477;29;20456;-68
2023/06/09 05:20:16;;;;;;;10.53;5.90;;;;;;;25.04;33.39;101019.09;4881749;29;20499;-65
2023/06/09 05:22:45;;;;;;;7.30;6.17;;;;;;;25.41;33.32;101014.75;4876599;29;20482;-66
2023/06/09 05:25:14;;;;;;;6.03;5.43;;;;;;;25.95;32.05;101014.22;4882741;29;20461;-66
2023/06/09 05:27:47;;;;;;;6.00;5.40;;;;;;;25.37;32.46;101017.28;4882453;29;20421;-66
2023/06/09 05:30:19;;;;;;;6.80;4.97;;;;;;;25.50;32.21;101024.88;4878162;29;20538;-65
2023/06/09 05:32:48;;;;;;;9.37;6.27;;;;;;;26.25;31.55;101027.63;4884694;29;20461;-65
2023/06/09 05:35:18;;;;;;;6.97;4.97;;;;;;;24.72;32.65;101018.06;4879775;29;20873;-65
2023/06/09 05:37:50;;;;;;;5.40;4.30;;;;;;;22.28;36.47;101017.72;4880332;29;20435;-65
2023/06/09 05:40:23;;;;;;;7.90;5.90;;;;;;;21.65;38.23;101023.44;4878143;29;21018;-65
2023/06/09 05:42:52;;;;;;;8.33;5.60;;;;;;;21.11;38.90;101020.19;4878522;29;20447;-64
2023/06/09 05:45:23;;;;;;;6.90;6.07;;;;;;;21.12;39.75;101021.84;4883591;29;20496;-65
2023/06/09 05:47:52;;;;;;;7.57;5.90;;;;;;;21.15;39.02;101020.53;4884227;29;20793;-66
2023/06/09 05:50:21;;;;;;;9.60;5.63;;;;;;;21.37;38.11;101023.06;4884027;29;20410;-66
2023/06/09 05:52:50;;;;;;;6.23;4.40;;;;;;;21.37;38.31;101025.84;4884816;29;20417;-64
2023/06/09 05:55:19;;;;;;;5.80;4.97;;;;;;;21.37;38.09;101023.91;4879973;29;20505;-67
2023/06/09 05:57:48;;;;;;;5.80;4.60;;;;;;;21.28;38.39;101028.28;4881930;29;20854;-65
2023/06/09 06:00:29;;;;;;;6.80;4.30;;;;;;;21.45;37.71;101033.56;4878117;29;20466;-65
2023/06/09 06:03:00;;;;;;;5.93;4.53;;;;;;;21.48;36.55;101033.03;4884325;29;20473;-65
2023/06/09 06:05:29;;;;;;;10.90;4.93;;;;;;;21.55;36.74;101033.59;4878823;29;20491;-66
2023/06/09 06:07:58;;;;;;;4.53;4.00;;;;;;;21.80;37.08;101043.84;4883120;29;21118;-66
2023/06/09 06:10:28;;;;;;;6.47;4.93;;;;;;;21.76;36.42;101040.81;4879296;29;20466;-67
2023/06/09 06:12:59;;;;;;;12.03;5.00;;;;;;;21.81;36.16;101046.31;4880182;29;20509;-66
2023/06/09 06:15:29;;;;;;;7.60;5.00;;;;;;;21.71;36.30;101040.78;4878693;29;20443;-66
2023/06/09 06:17:58;;;;;;;5.40;4.40;;;;;;;21.68;36.22;101041.34;4878503;29;20478;-67
2023/06/09 06:20:28;;;;;;;5.80;4.33;;;;;;;21.78;36.53;101043.28;4881204;29;20435;-65
2023/06/09 06:22:57;;;;;;;5.93;4.80;;;;;;;21.67;36.98;101037.75;4878762;29;20826;-66
2023/06/09 06:25:28;;;;;;;5.33;4.73;;;;;;;21.86;37.18;101046.34;4882037;29;20529;-67
2023/06/09 06:27:58;;;;;;;6.90;5.10;;;;;;;22.05;36.48;101047.50;4881140;29;20907;-65
2023/06/09 06:30:29;;;;;;;5.40;4.73;;;;;;;21.84;36.17;101043.00;4885628;29;20413;-65
2023/06/09 06:32:58;;;;;;;6.73;4.73;;;;;;;21.86;36.49;101045.50;4886490;29;20452;-67
2023/06/09 06:35:29;;;;;;;10.97;5.23;;;;;;;21.92;36.22;101042.50;4882294;29;20531;-68
2023/06/09 06:37:58;;;;;;;6.73;4.60;;;;;;;21.94;35.77;101054.09;4880531;29;20439;-66
2023/06/09 06:40:28;;;;;;;5.77;4.80;;;;;;;21.90;36.00;101049.34;4881950;29;20470;-66
2023/06/09 06:42:57;;;;;;;5.40;4.90;;;;;;;22.05;36.21;101043.91;4879564;29;20474;-65
2023/06/09 06:45:45;;;;;;;6.23;5.03;;;;;;;22.12;35.37;101047.22;4880812;29;20487;-64
2023/06/09 06:48:14;;;;;;;8.60;4.97;;;;;;;22.22;35.37;101049.16;4882671;29;20464;-66
2023/06/09 06:50:43;;;;;;;5.37;4.73;;;;;;;22.36;36.62;101047.50;4880793;29;20442;-66
2023/06/09 06:53:12;;;;;;;6.73;5.03;;;;;;;22.77;35.82;101054.63;4879366;29;20434;-66
2023/06/09 06:55:41;;;;;;;7.30;5.07;;;;;;;23.01;35.14;101048.50;4882817;29;20490;-65
2023/06/09 06:58:11;;;;;;;9.03;5.20;;;;;;;;;;4876206;29;20620;-66
2023/06/09 07:00:40;;;;;;;16.97;6.03;;;;;;;23.08;35.48;101057.31;4886579;29;20434;-65
2023/06/09 07:03:12;;;;;;;11.93;6.40;;;;;;;23.00;35.36;101057.88;4882401;29;20451;-65
2023/06/09 07:05:41;;;;;;;9.00;5.63;;;;;;;22.94;35.55;101059.84;4877353;29;20823;-64
2023/06/09 07:08:10;;;;;;;6.90;5.10;;;;;;;23.10;35.69;101066.13;4883631;29;20444;-64
2023/06/09 07:10:39;;;;;;;7.60;4.93;;;;;;;23.30;35.30;101058.59;4881402;29;20446;-64
2023/06/09 07:13:09;;;;;;;14.70;3.80;;;;;;;23.15;32.56;101066.94;4876586;29;20434;-65
2023/06/09 07:15:38;;;;;;;8.73;4.37;;;;;;;23.00;32.99;101071.66;4887443;29;20809;-67
2023/06/09 07:18:11;;;;;;;5.33;3.83;;;;;;;22.92;33.26;101076.66;4881378;29;20443;-64
2023/06/09 07:20:41;;;;;;;6.57;4.73;;;;;;;23.14;33.30;101073.56;4882672;29;20801;-65
2023/06/09 07:23:10;;;;;;;8.23;5.33;;;;;;;23.20;33.36;101069.69;4874034;29;20462;-65
2023/06/09 07:25:39;;;;;;;6.47;4.13;;;;;;;23.49;33.11;101071.78;4883160;29;20982;-63
2023/06/09 07:28:08;;;;;;;6.23;4.00;;;;;;;23.55;33.33;101076.19;4877480;29;20528;-65
2023/06/09 07:30:38;;;;;;;6.17;4.90;;;;;;;23.70;33.50;101074.19;4885469;29;20802;-65
2023/06/09 07:33:08;;;;;;;8.10;4.53;;;;;;;23.82;33.88;101071.06;4884218;29;20478;-65
2023/06/09 07:35:38;;;;;;;4.70;4.17;;;;;;;23.79;33.56;101066.94;4881764;29;20463;-65
2023/06/09 07:38:08;;;;;;;7.43;4.20;;;;;;;24.22;33.69;101068.03;4878428;29;20438;-67
2023/06/09 07:40:41;;;;;;;5.90;4.40;;;;;;;24.30;33.47;101065.78;4880685;29;20418;-66
2023/06/09 07:43:10;;;;;;;5.37;4.90;;;;;;;24.43;33.50;101065.94;4873762;29;20746;-66
2023/06/09 07:45:40;;;;;;;6.07;4.43;;;;;;;24.72;33.09;101067.88;4890033;29;21025;-65
2023/06/09 07:48:09;;;;;;;7.13;5.70;;;;;;;24.81;33.23;101060.59;4876241;29;20509;-66
2023/06/09 07:50:39;;;;;;;5.50;5.00;;;;;;;24.81;32.16;101068.88;4886434;29;20526;-66
2023/06/09 07:53:28;;;;;;;6.43;4.40;;;;;;;24.40;32.61;101076.75;4880429;29;20989;-65
2023/06/09 07:55:58;;;;;;;7.47;4.23;;;;;;;24.37;33.07;101077.31;4894793;29;20487;-66
2023/06/09 07:58:28;;;;;;;6.50;4.23;;;;;;;24.31;33.30;101079.31;4877633;29;20435;-65
2023/06/09 08:00:57;;;;;;;8.50;4.73;;;;;;;24.19;32.69;101076.09;4877550;29;20435;-66
2023/06/09 08:03:26;;;;;;;12.07;4.77;;;;;;;24.11;32.95;101073.88;4876554;29;20435;-67
2023/06/09 08:05:56;;;;;;;6.90;4.10;;;;;;;24.20;31.52;101066.69;4882944;29;20637;-65
2023/06/09 08:08:26;;;;;;;10.63;5.10;;;;;;;24.13;31.64;101075.28;4877701;29;20841;-66
2023/06/09 08:10:55;;;;;;;7.60;4.77;;;;;;;24.18;32.38;101068.91;4877000;29;20446;-67
2023/06/09 08:13:29;;;;;;;10.10;4.63;;;;;;;24.39;32.46;101075.94;4881761;29;20447;-65
2023/06/09 08:15:59;;;;;;;5.57;4.73;;;;;;;24.73;32.58;101067.59;4885262;29;20496;-64
2023/06/09 08:18:28;;;;;;;4.87;4.37;;;;;;;24.88;32.38;101067.47;4879771;29;20946;-66
2023/06/09 08:20:59;;;;;;;6.50;4.50;;;;;;;24.44;33.24;101067.59;4886997;29;20443;-64
2023/06/09 08:23:28;;;;;;;8.50;4.30;;;;;;;24.46;33.41;101075.59;4890656;29;20443;-65
2023/06/09 08:25:57;;;;;;;5.13;4.20;;;;;;;24.53;33.43;101082.44;4878861;29;20989;-64
2023/06/09 08:28:27;;;;;;;7.27;5.67;;;;;;;24.53;33.30;101082.44;4883613;29;20559;-66
2023/06/09 08:30:56;;;;;;;6.60;5.90;;;;;;;24.75;33.10;101072.81;4882829;29;20534;-65
2023/06/09 08:33:26;;;;;;;6.87;4.10;;;;;;;24.97;32.63;101075.94;4891518;29;20454;-64
2023/06/09 08:35:55;;;;;;;4.93;4.23;;;;;;;24.90;32.57;101075.47;4878551;29;20456;-65
2023/06/09 08:38:25;;;;;;;4.93;4.00;;;;;;;24.79;32.95;101068.34;4880165;29;20435;-64
2023/06/09 08:40:57;;;;;;;7.93;4.57;;;;;;;25.09;32.53;101074.41;4885813;29;20434;-64
2023/06/09 08:43:27;;;;;;;6.00;4.70;;;;;;;25.21;32.30;101076.78;4891064;29;20439;-64
2023/06/09 08:45:58;;;;;;;6.43;4.13;;;;;;;25.23;32.34;101070.91;4880998;29;20482;-63
2023/06/09 08:48:31;;;;;;;7.57;4.30;;;;;;;25.08;32.60;101077.47;4881891;29;20523;-65
2023/06/09 08:51:00;;;;;;;7.23;5.03;;;;;;;25.27;31.96;101075.56;4881041;29;20439;-64
2023/06/09 08:53:32;;;;;;;5.33;4.43;;;;;;;25.50;31.59;101080.28;4875650;29;20435;-67
2023/06/09 08:56:02;;;;;;;7.97;4.43;;;;;;;25.83;31.19;101083.19;4883077;29;20457;-63
2023/06/09 08:58:32;;;;;;;4.77;4.23;;;;;;;26.22;30.55;101072.63;4885118;29;21011;-64
2023/06/09 09:01:02;;;;;;;7.43;4.60;;;;;;;26.40;30.56;101070.94;4879989;29;20402;-66
2023/06/09 09:03:32;;;;;;;7.20;5.20;;;;;;;26.50;30.63;101072.72;4882826;29;20431;-65
2023/06/09 09:06:01;;;;;;;7.00;4.73;;;;;;;26.60;31.17;101069.75;4887578;29;20483;-66
2023/06/09 09:08:32;;;;;;;8.03;5.00;;;;;;;26.82;30.76;101072.66;4881648;29;20641;-66
2023/06/09 09:11:01;;;;;;;7.33;5.10;;;;;;;26.49;31.51;101073.84;4881933;29;20446;-66
2023/06/09 09:13:30;;;;;;;7.20;5.70;;;;;;;26.74;31.47;101073.38;4881030;29;20431;-65
2023/06/09 09:16:01;;;;;;;6.53;5.40;;;;;;;26.51;31.69;101063.28;4883701;29;20558;-65
2023/06/09 09:18:32;;;;;;;5.33;4.67;;;;;;;26.72;30.98;101073.69;4882691;29;20855;-67
2023/06/09 09:21:02;;;;;;;7.57;5.17;;;;;;;26.48;31.11;101066.66;4886118;29;20438;-65
2023/06/09 09:23:33;;;;;;;9.17;5.70;;;;;;;26.55;31.43;101064.31;4881475;29;21021;-65
2023/06/09 09:26:03;;;;;;;6.20;4.43;;;;;;;26.47;32.00;101068.59;4890951;29;20494;-66
2023/06/09 09:28:40;;;;;;;7.83;5.97;;;;;;;26.35;32.46;101063.53;4886286;29;20478;-67
2023/06/09 09:31:09;;;;;;;6.00;5.30;;;;;;;26.58;32.37;101060.91;4881818;29;20439;-65
2023/06/09 09:33:47;;;;;;;7.20;5.33;;;;;;;26.74;32.22;101057.56;4888418;29;20962;-66
2023/06/09 09:36:19;;;;;;;16.87;5.10;;;;;;;27.13;32.11;101059.06;4888896;29;20490;-65
2023/06/09 09:38:50;;;;;;;10.63;5.67;;;;;;;27.15;31.70;101054.03;4890128;29;20442;-65
2023/06/09 09:41:19;;;;;;;9.67;5.20;;;;;;;27.37;31.70;101056.06;4887387;29;20734;-66
2023/06/09 09:43:48;;;;;;;7.00;6.30;;;;;;;27.50;32.04;101058.00;4900105;29;20953;-65
2023/06/09 09:46:22;;;;;;;6.23;5.63;;;;;;;27.46;32.59;101055.00;4883393;29;21009;-67
2023/06/09 09:48:53;;;;;;;8.00;5.53;;;;;;;27.54;32.81;101061.84;4881229;29;20447;-64
2023/06/09 09:51:23;;;;;;;6.57;5.97;;;;;;;27.71;32.23;101062.00;4880015;29;20488;-64
2023/06/09 09:53:58;;;;;;;8.70;6.57;;;;;;;27.71;32.44;101056.44;4879488;29;20443;-66
2023/06/09 09:56:28;;;;;;;6.93;6.33;;;;;;;27.91;33.04;101061.53;4885209;29;20454;-67
2023/06/09 09:58:59;;;;;;;7.30;6.60;;;;;;;28.18;33.09;101057.00;4881567;29;20418;-66
2023/06/09 10:01:29;;;;;;;6.47;5.77;;;;;;;28.16;32.47;101062.09;4882756;29;20925;-65
2023/06/09 10:04:00;;;;;;;9.47;6.40;;;;;;;28.20;31.95;101055.56;4885998;29;20966;-65
2023/06/09 10:06:32;;;;;;;8.43;5.93;;;;;;;28.38;31.99;101048.16;4883484;29;20495;-64
2023/06/09 10:09:04;;;;;;;5.30;4.80;;;;;;;28.74;31.99;101057.25;4881824;29;20446;-65
2023/06/09 10:11:35;;;;;;;9.13;5.67;;;;;;;28.46;32.42;101041.84;4879743;29;20435;-63
2023/06/09 10:14:05;;;;;;;6.87;6.17;;;;;;;28.64;32.12;101042.75;4886513;29;20806;-66
2023/06/09 10:16:35;;;;;;;7.90;5.67;;;;;;;28.50;31.90;101046.47;4875235;29;20455;-66
2023/06/09 10:19:06;;;;;;;7.30;5.40;;;;;;;28.44;32.29;101036.59;4884536;29;20442;-67
2023/06/09 10:21:36;;;;;;;7.50;5.83;;;;;;;28.77;30.99;101039.91;4880165;29;20475;-64
2023/06/09 10:24:08;;;;;;;6.33;5.23;;;;;;;28.82;31.21;101039.75;4879651;29;20483;-65
2023/06/09 10:26:39;;;;;;;5.63;5.13;;;;;;;29.01;30.79;101038.69;4881160;29;20850;-65
2023/06/09 10:29:09;;;;;;;6.33;5.67;;;;;;;29.30;29.58;101037.00;4883491;29;20435;-65
2023/06/09 10:31:41;;;;;;;7.00;5.20;;;;;;;29.65;29.10;101039.88;4886628;29;20427;-66
2023/06/09 10:34:13;;;;;;;6.90;6.20;;;;;;;29.68;29.18;101026.06;4894717;29;20856;-68
2023/06/09 10:36:42;;;;;;;8.07;5.00;;;;;;;29.32;28.91;101028.34;4888288;29;20454;-63
2023/06/09 10:39:26;;;;;;;6.27;5.43;;;;;;;29.65;28.24;101025.91;4879095;29;20467;-66
2023/06/09 10:42:09;;;;;;;6.83;5.40;;;;;;;29.44;28.98;101025.72;4883810;29;20815;-66
2023/06/09 10:44:45;;;;;;;5.80;5.30;;;;;;;29.79;28.90;101016.25;4881800;29;20431;-64
2023/06/09 10:47:43;;;;;;;6.77;4.93;;;;;;;29.46;28.14;101026.22;4883304;29;20478;-66
2023/06/09 10:50:31;;;;;;;8.23;5.90;;;;;;;28.93;29.42;101026.38;4874288;29;20440;-65
2023/06/09 10:53:02;;;;;;;5.90;5.40;;;;;;;28.87;29.90;101022.91;4886793;29;20470;-66
2023/06/09 10:55:34;;;;;;;6.47;5.10;;;;;;;28.64;29.46;101007.38;4893419;29;20467;-66
2023/06/09 10:58:04;;;;;;;6.67;4.20;;;;;;;29.21;28.55;101021.38;4900922;29;20522;-66
2023/06/09 11:01:06;;;;;;;5.30;4.80;;;;;;;29.10;28.19;101020.03;4878951;29;20809;-65
2023/06/09 11:03:37;;;;;;;6.00;4.90;;;;;;;29.06;28.24;101014.28;4885853;29;20455;-66
2023/06/09 11:06:08;;;;;;;5.10;4.60;;;;;;;28.80;28.69;101017.00;4894714;29;20502;-66
2023/06/09 11:09:09;;;;;;;5.50;4.83;;;;;;;28.86;28.91;101014.88;4879656;29;20455;-63
2023/06/09 11:11:54;;;;;;;6.10;5.50;;;;;;;29.12;29.79;101004.66;4882161;29;20502;-65
2023/06/09 11:14:52;;;;;;;9.30;5.50;;;;;;;29.47;30.04;101002.78;4883425;29;20816;-65
2023/06/09 11:17:27;;;;;;;5.73;5.17;;;;;;;29.11;30.89;101010.53;4896367;29;20472;-67
2023/06/09 11:20:14;;;;;;;6.53;5.83;;;;;;;28.80;31.24;101005.84;4893569;29;20473;-67
2023/06/09 11:23:03;;;;;;;5.47;5.00;;;;;;;28.84;30.41;100995.72;4878980;29;20783;-63
2023/06/09 11:25:41;;;;;;;11.03;5.47;;;;;;;28.61;31.04;100990.50;4878189;29;20492;-67
2023/06/09 11:28:22;;;;;;;6.73;5.80;;;;;;;28.50;32.03;100978.81;4874876;29;20474;-64
2023/06/09 11:31:04;;;;;;;7.10;5.33;;;;;;;28.70;31.49;100983.84;4880883;29;20914;-65
2023/06/09 11:33:49;;;;;;;7.00;6.40;;;;;;;28.79;31.07;100990.28;4904279;23;20508;-66
2023/06/09 11:36:20;;;;;;;5.80;5.20;;;;;;;28.40;30.59;100984.66;4893669;29;20970;-67
2023/06/09 11:38:50;;;;;;;6.87;6.27;;;;;;;28.49;30.67;100974.38;4905317;29;20446;-68